Time;durP1;ratioP1;P1;durP2;ratioP2;P2;SDS_P1;SDS_P2;PMS_P1;PMS_P2;Temp;Humidity;BMP_temperature;BMP_pressure;BME280_temperature;BME280_humidity;BME280_pressure;Samples;Min_cycle;Max_cycle;Signal;HPM_P1;HPM_P2
2022/08/02 00:00:46;;;;;;;9.27;4.55;;;;;;;12.79;84.44;101778.41;5095570;28;20390;-46
2022/08/02 00:03:11;;;;;;;10.13;4.88;;;;;;;12.74;85.04;101777.38;5095996;28;20032;-45
2022/08/02 00:05:36;;;;;;;11.38;4.82;;;;;;;12.73;86.32;101773.03;5095399;28;20020;-45
2022/08/02 00:08:02;;;;;;;10.32;4.63;;;;;;;12.74;85.91;101769.63;5095495;28;20040;-45
2022/08/02 00:10:27;;;;;;;8.00;5.22;;;;;;;12.70;85.45;101766.03;5095997;28;20025;-46
2022/08/02 00:12:52;;;;;;;10.45;5.32;;;;;;;12.66;85.06;101772.78;5095469;28;20016;-45
2022/08/02 00:15:18;;;;;;;9.90;4.60;;;;;;;12.57;86.68;101767.31;5095459;28;20024;-45
2022/08/02 00:17:43;;;;;;;11.30;5.40;;;;;;;12.54;87.29;101763.72;5095639;28;20480;-47
2022/08/02 00:20:10;;;;;;;7.15;4.90;;;;;;;12.55;87.40;101766.38;5095204;28;20031;-45
2022/08/02 00:22:38;;;;;;;8.93;4.78;;;;;;;12.52;86.38;101767.16;5095595;28;20036;-48
2022/08/02 00:25:04;;;;;;;9.35;6.03;;;;;;;12.45;85.91;101770.31;5095759;28;20038;-46
2022/08/02 00:27:29;;;;;;;10.43;6.13;;;;;;;12.54;85.15;101774.06;5094706;28;20024;-46
2022/08/02 00:29:55;;;;;;;11.35;5.97;;;;;;;12.57;85.77;101780.22;5095240;28;20051;-46
2022/08/02 00:32:23;;;;;;;12.30;5.72;;;;;;;12.72;86.20;101779.91;5095567;28;20052;-44
2022/08/02 00:34:49;;;;;;;9.13;5.57;;;;;;;12.74;84.68;101783.41;5094838;28;20016;-45
2022/08/02 00:37:15;;;;;;;12.20;6.15;;;;;;;12.67;85.73;101764.22;5095436;28;20101;-44
2022/08/02 00:39:44;;;;;;;9.68;6.10;;;;;;;12.59;85.97;101763.06;5094556;28;20026;-46
2022/08/02 00:42:09;;;;;;;9.90;4.97;;;;;;;12.60;85.82;101767.44;5095168;28;20395;-46
2022/08/02 00:44:34;;;;;;;12.15;6.13;;;;;;;12.77;84.09;101765.44;5095070;28;20463;-47
2022/08/02 00:47:00;;;;;;;9.48;5.43;;;;;;;12.80;82.33;101770.72;5094534;28;20479;-46
2022/08/02 00:49:25;;;;;;;11.68;5.50;;;;;;;12.93;78.77;101771.16;5094804;28;20035;-49
2022/08/02 00:51:50;;;;;;;9.52;5.50;;;;;;;13.05;76.20;101748.25;5094987;28;20024;-46
2022/08/02 00:54:16;;;;;;;8.93;5.43;;;;;;;13.20;75.07;101745.31;5094704;28;20032;-46
2022/08/02 00:56:41;;;;;;;10.10;4.97;;;;;;;13.27;78.80;101749.00;5094916;28;20854;-46
2022/08/02 00:59:06;;;;;;;7.38;5.18;;;;;;;13.32;75.05;101750.03;5094811;28;20039;-44
2022/08/02 01:01:38;;;;;;;9.70;4.70;;;;;;;13.39;72.51;101744.25;5094318;28;20031;-47
2022/08/02 01:04:10;;;;;;;10.60;4.75;;;;;;;13.44;72.61;101747.88;5094104;28;20421;-46
2022/08/02 01:06:38;;;;;;;9.32;4.45;;;;;;;13.50;71.51;101748.06;5094904;28;20230;-45
2022/08/02 01:09:04;;;;;;;10.52;5.03;;;;;;;13.52;73.40;101750.72;5094427;28;20024;-44
2022/08/02 01:11:29;;;;;;;9.75;4.85;;;;;;;13.49;73.89;101740.22;5094369;28;20386;-45
2022/08/02 01:13:58;;;;;;;8.45;4.22;;;;;;;13.46;73.62;101753.09;5094450;28;20031;-48
2022/08/02 01:16:26;;;;;;;10.00;4.20;;;;;;;13.34;74.61;101748.38;5094024;28;20107;-46
2022/08/02 01:19:00;;;;;;;10.27;4.65;;;;;;;13.21;74.90;101749.69;5094349;28;20020;-45
2022/08/02 01:21:38;;;;;;;8.73;4.35;;;;;;;13.06;76.08;101746.56;5094416;28;20589;-46
2022/08/02 01:24:20;;;;;;;7.65;4.55;;;;;;;13.02;77.21;101748.16;5093931;28;20500;-46
2022/08/02 01:26:45;;;;;;;10.77;4.45;;;;;;;13.15;75.22;101742.56;5093915;28;20020;-46
2022/08/02 01:29:32;;;;;;;10.47;4.27;;;;;;;13.18;74.60;101747.88;5093836;28;20020;-47
2022/08/02 01:32:17;;;;;;;8.32;4.00;;;;;;;13.26;74.08;101742.03;5094243;28;20028;-45
2022/08/02 01:34:43;;;;;;;11.68;3.97;;;;;;;13.37;72.99;101740.72;5094143;28;20046;-45
2022/08/02 01:37:23;;;;;;;8.10;4.03;;;;;;;13.44;73.68;101741.78;5093776;28;20123;-46
2022/08/02 01:40:12;;;;;;;9.07;4.00;;;;;;;13.44;73.71;101742.69;5094021;28;20024;-45
2022/08/02 01:42:44;;;;;;;10.88;3.70;;;;;;;13.45;74.88;101739.28;5093921;28;20035;-45
2022/08/02 01:45:12;;;;;;;9.75;3.90;;;;;;;13.46;73.94;101743.59;5093675;28;20070;-48
2022/08/02 01:47:40;;;;;;;8.43;3.67;;;;;;;13.49;74.31;101738.53;5093715;28;20032;-44
2022/08/02 01:50:07;;;;;;;8.23;3.53;;;;;;;13.42;74.66;101733.97;5093359;28;20032;-47
2022/08/02 01:52:36;;;;;;;10.00;4.00;;;;;;;13.49;73.34;101730.78;5093867;28;20020;-46
2022/08/02 01:55:22;;;;;;;7.93;3.90;;;;;;;13.45;74.81;101728.03;5093989;28;20024;-44
2022/08/02 01:57:51;;;;;;;10.07;4.38;;;;;;;13.46;74.69;101724.59;5093353;28;20024;-46
2022/08/02 02:00:18;;;;;;;8.60;3.58;;;;;;;13.46;75.62;101720.31;5093521;28;20078;-44
2022/08/02 02:02:46;;;;;;;12.80;4.38;;;;;;;13.37;74.23;101725.19;5093785;28;20036;-46
2022/08/02 02:05:17;;;;;;;10.82;4.30;;;;;;;13.38;73.67;101721.78;5093149;28;20356;-44
2022/08/02 02:07:45;;;;;;;9.32;4.15;;;;;;;13.34;73.84;101723.34;5093173;28;20036;-44
2022/08/02 02:10:15;;;;;;;7.88;4.22;;;;;;;13.42;74.83;101718.44;5093729;28;20031;-45
2022/08/02 02:12:45;;;;;;;11.70;4.10;;;;;;;13.38;74.10;101716.59;5092800;28;20110;-46
2022/08/02 02:15:11;;;;;;;11.57;4.15;;;;;;;13.25;75.71;101706.66;5092638;28;20020;-48
2022/08/02 02:17:40;;;;;;;10.55;4.13;;;;;;;13.24;75.57;101708.34;5093294;28;20380;-44
2022/08/02 02:20:06;;;;;;;8.13;4.10;;;;;;;13.12;76.40;101706.25;5092941;28;20024;-45
2022/08/02 02:22:32;;;;;;;9.60;4.30;;;;;;;13.06;77.20;101702.59;5093185;28;20020;-44
2022/08/02 02:24:57;;;;;;;8.55;3.92;;;;;;;12.99;77.99;101689.44;5093317;28;20605;-46
2022/08/02 02:27:24;;;;;;;9.52;4.47;;;;;;;12.98;77.41;101689.38;5092508;28;20028;-46
2022/08/02 02:29:52;;;;;;;7.75;4.22;;;;;;;12.94;78.21;101687.53;5093210;28;20028;-46
2022/08/02 02:32:20;;;;;;;11.57;5.07;;;;;;;13.01;76.72;101692.06;5092936;28;20043;-44
2022/08/02 02:34:47;;;;;;;;;;;;;;;13.03;76.10;101685.25;5093280;28;20089;-45
2022/08/02 02:37:17;;;;;;;8.70;4.30;;;;;;;12.89;78.33;101691.66;5093414;28;19912;-45
2022/08/02 02:39:44;;;;;;;8.32;4.03;;;;;;;12.93;78.26;101681.47;5092513;28;20059;-46
2022/08/02 02:42:12;;;;;;;9.27;4.47;;;;;;;12.85;78.29;101681.19;5092678;28;20054;-45
2022/08/02 02:44:39;;;;;;;12.93;4.40;;;;;;;12.77;78.79;101685.25;5093220;28;20028;-44
2022/08/02 02:47:05;;;;;;;7.40;4.13;;;;;;;12.72;79.34;101691.97;5092570;28;20020;-47
2022/08/02 02:49:33;;;;;;;10.43;4.70;;;;;;;12.59;79.94;101693.25;5092592;28;20454;-45
2022/08/02 02:52:00;;;;;;;8.13;4.28;;;;;;;12.55;79.87;101693.97;5093000;28;20020;-46
2022/08/02 02:54:26;;;;;;;9.70;4.55;;;;;;;12.46;80.49;101691.94;5092216;28;20081;-44
2022/08/02 02:56:53;;;;;;;9.80;4.47;;;;;;;12.44;80.43;101691.00;5092963;28;20028;-47
2022/08/02 02:59:19;;;;;;;10.10;4.68;;;;;;;12.40;80.82;101694.31;5093207;28;20144;-47
2022/08/02 03:01:44;;;;;;;8.13;4.43;;;;;;;12.41;82.00;101690.00;5092370;28;20024;-45
2022/08/02 03:04:11;;;;;;;10.93;4.80;;;;;;;12.46;80.31;101688.47;5092652;28;20494;-45
2022/08/02 03:06:37;;;;;;;10.50;4.83;;;;;;;12.39;82.21;101683.91;5092763;28;20028;-45
2022/08/02 03:09:04;;;;;;;8.15;4.13;;;;;;;12.30;83.10;101677.59;5092262;28;20020;-46
2022/08/02 03:11:30;;;;;;;13.63;5.30;;;;;;;12.35;82.67;101672.56;5092856;28;20024;-46
2022/08/02 03:14:00;;;;;;;11.35;4.60;;;;;;;12.23;82.76;101682.50;5092840;28;20020;-45
2022/08/02 03:16:29;;;;;;;14.23;4.53;;;;;;;12.18;83.11;101690.06;5092215;28;20066;-45
2022/08/02 03:18:56;;;;;;;14.63;5.57;;;;;;;12.08;82.84;101681.09;5092548;28;20043;-48
2022/08/02 03:21:22;;;;;;;8.20;4.83;;;;;;;12.12;83.83;101676.91;5092266;28;20031;-46
2022/08/02 03:23:48;;;;;;;11.88;4.97;;;;;;;12.18;83.57;101680.59;5092418;28;20398;-47
2022/08/02 03:26:14;;;;;;;11.65;5.18;;;;;;;12.14;83.99;101675.28;5094517;28;20020;-45
2022/08/02 03:28:40;;;;;;;10.65;5.10;;;;;;;12.13;83.65;101687.31;5096280;28;20020;-46
2022/08/02 03:31:05;;;;;;;8.27;5.38;;;;;;;12.13;84.46;101684.72;5096421;28;20028;-44
2022/08/02 03:33:32;;;;;;;9.93;5.50;;;;;;;12.08;84.07;101691.41;5096480;28;20109;-46
2022/08/02 03:36:07;;;;;;;11.98;5.35;;;;;;;12.15;84.71;101688.25;5096115;28;20050;-44
2022/08/02 03:38:33;;;;;;;10.55;5.25;;;;;;;12.13;84.98;101676.97;5096404;28;20091;-45
2022/08/02 03:41:02;;;;;;;9.02;5.30;;;;;;;12.17;85.16;101675.38;5096600;28;20030;-45
2022/08/02 03:43:28;;;;;;;11.80;5.68;;;;;;;12.09;84.78;101672.53;5095690;28;20047;-44
2022/08/02 03:45:54;;;;;;;10.77;6.03;;;;;;;12.15;86.20;101666.72;5096104;28;20110;-45
2022/08/02 03:48:21;;;;;;;12.27;5.50;;;;;;;12.18;84.63;101664.22;5096325;28;20032;-45
2022/08/02 03:50:47;;;;;;;14.68;6.22;;;;;;;12.22;83.96;101657.47;5095290;28;20372;-46
2022/08/02 03:53:14;;;;;;;10.80;5.63;;;;;;;12.23;84.92;101654.06;5096266;28;20081;-45
2022/08/02 03:55:40;;;;;;;14.73;5.90;;;;;;;12.23;84.97;101660.09;5096033;28;20463;-44
2022/08/02 03:58:05;;;;;;;10.30;5.95;;;;;;;12.24;84.90;101656.69;5095681;28;20046;-45
2022/08/02 04:00:31;;;;;;;11.35;5.65;;;;;;;12.22;85.17;101657.47;5095851;28;20027;-45
2022/08/02 04:02:57;;;;;;;9.20;5.90;;;;;;;12.23;85.44;101659.25;5095978;28;20050;-47
2022/08/02 04:05:23;;;;;;;8.90;5.88;;;;;;;12.21;85.41;101651.41;5095219;28;20048;-45
2022/08/02 04:07:49;;;;;;;16.67;6.55;;;;;;;12.22;85.93;101652.31;5095563;28;20087;-45
2022/08/02 04:10:14;;;;;;;12.23;5.88;;;;;;;12.30;85.51;101645.69;5096015;28;20024;-45
2022/08/02 04:12:40;;;;;;;10.32;5.95;;;;;;;12.28;85.13;101648.22;5095356;28;20430;-45
2022/08/02 04:15:07;;;;;;;11.30;6.28;;;;;;;12.22;85.15;101652.31;5095547;28;20035;-44
2022/08/02 04:17:37;;;;;;;13.15;6.60;;;;;;;12.31;85.38;101653.50;5095570;28;20048;-45
2022/08/02 04:20:09;;;;;;;15.13;6.13;;;;;;;12.30;85.53;101656.03;5095521;28;20480;-50
2022/08/02 04:22:48;;;;;;;15.35;6.65;;;;;;;12.30;85.54;101653.44;5095446;28;20418;-44
2022/08/02 04:25:15;;;;;;;13.43;6.65;;;;;;;12.40;84.21;101652.94;5095358;28;20028;-45
2022/08/02 04:27:41;;;;;;;11.80;6.47;;;;;;;12.34;85.37;101655.31;5095243;28;20043;-44
2022/08/02 04:30:08;;;;;;;13.52;7.38;;;;;;;12.38;85.64;101646.81;5095769;28;20032;-47
2022/08/02 04:32:34;;;;;;;8.18;6.53;;;;;;;12.39;85.66;101648.59;5094782;28;20103;-46
2022/08/02 04:34:59;;;;;;;11.27;7.00;;;;;;;12.42;86.00;101651.31;5095391;28;20016;-45
2022/08/02 04:37:25;;;;;;;18.40;7.53;;;;;;;12.38;85.55;101659.75;5094631;28;20016;-44
2022/08/02 04:39:51;;;;;;;13.85;7.35;;;;;;;12.33;85.58;101663.88;5094887;28;20028;-45
2022/08/02 04:42:25;;;;;;;14.00;7.68;;;;;;;12.31;85.87;101663.84;5095036;28;20052;-46
2022/08/02 04:44:51;;;;;;;13.90;6.82;;;;;;;12.31;86.65;101662.97;5095209;28;20024;-44
2022/08/02 04:47:17;;;;;;;13.32;7.05;;;;;;;12.33;85.96;101654.44;5094596;28;20375;-44
2022/08/02 04:49:42;;;;;;;14.52;8.38;;;;;;;12.48;85.75;101654.06;5094921;28;20484;-45
2022/08/02 04:52:07;;;;;;;15.75;7.80;;;;;;;12.46;86.32;101653.16;5095169;28;20093;-45
2022/08/02 04:54:33;;;;;;;17.33;7.72;;;;;;;12.52;85.16;101648.22;5094538;28;20027;-45
2022/08/02 04:56:58;;;;;;;15.45;8.27;;;;;;;12.50;86.01;101649.84;5094730;28;20039;-44
2022/08/02 04:59:23;;;;;;;15.88;8.13;;;;;;;12.53;86.12;101646.50;5094814;28;20031;-48
2022/08/02 05:01:49;;;;;;;16.23;7.78;;;;;;;12.59;85.58;101643.22;5094246;28;20103;-45
2022/08/02 05:04:14;;;;;;;18.48;8.73;;;;;;;12.66;84.79;101640.91;5094813;28;20024;-44
2022/08/02 05:06:39;;;;;;;14.98;8.60;;;;;;;12.71;84.38;101646.25;5094298;28;20028;-45
2022/08/02 05:09:05;;;;;;;14.77;8.35;;;;;;;12.81;83.85;101640.53;5094090;28;20475;-47
2022/08/02 05:11:30;;;;;;;18.98;8.70;;;;;;;12.89;83.63;101645.09;5094621;28;20028;-44
2022/08/02 05:13:55;;;;;;;16.45;8.60;;;;;;;12.94;83.13;101646.13;5094060;28;20425;-45
2022/08/02 05:16:21;;;;;;;12.65;8.55;;;;;;;12.99;83.51;101639.41;5094588;28;20476;-44
2022/08/02 05:18:46;;;;;;;16.13;8.85;;;;;;;13.08;83.00;101638.78;5094550;28;20070;-44
2022/08/02 05:21:11;;;;;;;13.52;8.50;;;;;;;13.16;83.14;101638.22;5094198;28;20016;-44
2022/08/02 05:23:37;;;;;;;14.20;8.52;;;;;;;13.23;83.02;101635.81;5094163;28;20082;-44
2022/08/02 05:26:02;;;;;;;19.13;9.20;;;;;;;13.32;83.30;101634.41;5094270;28;20032;-46
2022/08/02 05:28:27;;;;;;;16.73;9.65;;;;;;;13.39;83.03;101632.03;5093697;28;20028;-44
2022/08/02 05:30:53;;;;;;;17.65;9.95;;;;;;;13.47;83.14;101634.03;5094084;28;20031;-44
2022/08/02 05:33:18;;;;;;;18.17;9.95;;;;;;;13.57;83.78;101631.69;5094546;28;20437;-45
2022/08/02 05:35:43;;;;;;;18.70;9.52;;;;;;;13.62;83.03;101622.34;5093578;28;20020;-46
2022/08/02 05:38:09;;;;;;;18.73;10.20;;;;;;;13.71;83.24;101617.47;5094026;28;20033;-48
2022/08/02 05:40:34;;;;;;;16.60;10.05;;;;;;;13.79;83.31;101628.91;5094301;28;20038;-46
2022/08/02 05:43:00;;;;;;;18.67;10.45;;;;;;;13.90;83.16;101628.34;5093242;28;20446;-45
2022/08/02 05:45:26;;;;;;;20.38;11.65;;;;;;;14.04;83.26;101626.16;5093686;28;20030;-46
2022/08/02 05:47:51;;;;;;;16.50;10.73;;;;;;;14.12;83.26;101625.50;5094107;28;20027;-44
2022/08/02 05:50:17;;;;;;;20.55;12.00;;;;;;;14.24;83.09;101624.09;5093367;28;20034;-44
2022/08/02 05:52:49;;;;;;;17.75;11.60;;;;;;;14.33;83.27;101620.03;5093424;28;20028;-45
2022/08/02 05:55:17;;;;;;;14.82;10.98;;;;;;;14.49;83.62;101642.06;5093883;28;20031;-46
2022/08/02 05:57:55;;;;;;;;;;;;;;;14.53;83.00;101636.97;5093485;28;20047;-44
2022/08/02 06:00:21;;;;;;;21.98;12.95;;;;;;;14.77;83.02;101641.91;5093702;28;19919;-47
2022/08/02 06:03:07;;;;;;;20.23;12.98;;;;;;;14.96;82.50;101649.34;5093734;28;20221;-44
2022/08/02 06:05:39;;;;;;;18.55;12.60;;;;;;;15.27;82.15;101654.34;5093204;28;20468;-44
2022/08/02 06:08:09;;;;;;;20.90;13.18;;;;;;;15.53;81.40;101651.47;5093407;28;20479;-45
2022/08/02 06:10:37;;;;;;;20.77;12.88;;;;;;;15.69;80.53;101650.97;5092826;28;20561;-45
2022/08/02 06:13:15;;;;;;;18.15;13.00;;;;;;;15.82;80.22;101644.34;5093254;28;20472;-46
2022/08/02 06:15:41;;;;;;;20.60;13.60;;;;;;;15.90;80.09;101654.91;5093456;28;20058;-45
2022/08/02 06:18:07;;;;;;;20.52;13.05;;;;;;;15.92;80.35;101650.59;5092957;28;20479;-46
2022/08/02 06:20:36;;;;;;;24.75;13.75;;;;;;;15.94;80.92;101647.19;5093150;28;20028;-46
2022/08/02 06:23:07;;;;;;;21.65;13.15;;;;;;;16.04;80.96;101650.84;5093265;28;20020;-44
2022/08/02 06:25:37;;;;;;;17.55;12.80;;;;;;;16.07;80.81;101650.91;5092948;28;20039;-48
2022/08/02 06:28:04;;;;;;;22.45;14.15;;;;;;;16.13;81.55;101656.22;5092905;28;20467;-45
2022/08/02 06:30:31;;;;;;;20.77;12.68;;;;;;;16.19;82.50;101654.59;5093345;28;20153;-45
2022/08/02 06:32:56;;;;;;;19.83;12.23;;;;;;;16.25;82.26;101641.72;5092724;28;20023;-44
2022/08/02 06:35:28;;;;;;;19.02;13.27;;;;;;;16.36;82.54;101635.00;5092920;28;20028;-45
2022/08/02 06:37:59;;;;;;;21.98;13.15;;;;;;;16.49;82.76;101637.78;5093396;28;20066;-44
2022/08/02 06:40:57;;;;;;;20.75;12.48;;;;;;;16.66;83.17;101638.13;5092317;28;20031;-44
2022/08/02 06:43:30;;;;;;;17.70;12.32;;;;;;;16.85;82.26;101627.16;5079585;28;20067;-46
2022/08/02 06:45:55;;;;;;;21.20;12.48;;;;;;;17.03;82.32;101631.81;5092626;28;20032;-45
2022/08/02 06:48:20;;;;;;;20.30;12.43;;;;;;;17.18;80.90;101625.06;5092855;28;20510;-47
2022/08/02 06:50:46;;;;;;;15.48;12.07;;;;;;;17.34;80.32;101636.59;5093020;28;20020;-45
2022/08/02 06:53:11;;;;;;;19.48;13.35;;;;;;;17.52;79.86;101635.97;5092571;28;20031;-49
2022/08/02 06:55:36;;;;;;;20.45;12.65;;;;;;;17.62;79.98;101627.41;5092477;28;20039;-45
2022/08/02 06:58:02;;;;;;;21.42;13.25;;;;;;;17.80;79.94;101629.38;5092861;28;20039;-45
2022/08/02 07:00:29;;;;;;;21.45;14.05;;;;;;;17.92;79.30;101631.25;5091826;28;20027;-45
2022/08/02 07:02:54;;;;;;;21.55;13.75;;;;;;;18.04;79.58;101630.56;5092758;28;20051;-46
2022/08/02 07:05:20;;;;;;;17.58;13.15;;;;;;;18.18;79.65;101630.69;5093139;28;20388;-46
2022/08/02 07:07:46;;;;;;;24.55;14.50;;;;;;;18.39;79.34;101630.91;5091966;28;20353;-46
2022/08/02 07:10:13;;;;;;;21.40;14.23;;;;;;;18.51;78.84;101631.91;5092632;28;20503;-45
2022/08/02 07:12:38;;;;;;;23.87;14.50;;;;;;;18.62;78.44;101630.28;5092750;28;20020;-46
2022/08/02 07:15:05;;;;;;;22.15;14.85;;;;;;;18.75;77.73;101639.94;5092212;28;20061;-46
2022/08/02 07:17:32;;;;;;;20.13;14.63;;;;;;;18.85;77.86;101640.00;5092686;28;20028;-45
2022/08/02 07:19:58;;;;;;;22.38;14.82;;;;;;;18.93;77.36;101641.00;5092992;28;20027;-45
2022/08/02 07:22:25;;;;;;;24.58;15.45;;;;;;;19.06;77.92;101632.38;5092102;28;20020;-45
2022/08/02 07:24:50;;;;;;;;;;;;;;;19.09;77.89;101626.31;5093136;28;20028;-45
2022/08/02 07:27:16;;;;;;;24.33;14.47;;;;;;;19.19;77.57;101622.03;5092626;28;19965;-45
2022/08/02 07:29:41;;;;;;;19.52;13.73;;;;;;;19.27;76.22;101622.06;5091780;28;20494;-47
2022/08/02 07:32:06;;;;;;;24.85;13.90;;;;;;;19.33;76.65;101622.97;5092859;28;20028;-43
2022/08/02 07:34:32;;;;;;;21.80;13.60;;;;;;;19.38;76.30;101623.88;5092443;28;20070;-43
2022/08/02 07:36:57;;;;;;;18.88;12.85;;;;;;;19.32;76.20;101623.84;5092164;28;20483;-47
2022/08/02 07:39:22;;;;;;;17.90;12.80;;;;;;;19.36;76.46;101625.59;5092414;28;20034;-43
2022/08/02 07:41:50;;;;;;;18.83;12.93;;;;;;;19.51;76.23;101613.47;5091670;28;20099;-43
2022/08/02 07:44:16;;;;;;;17.95;12.40;;;;;;;19.60;74.63;101615.25;5092422;28;20020;-44
2022/08/02 07:46:41;;;;;;;20.40;11.32;;;;;;;19.70;74.81;101619.66;5092374;28;20103;-46
2022/08/02 07:49:07;;;;;;;16.48;11.13;;;;;;;19.82;74.02;101618.84;5092082;28;20032;-46
2022/08/02 07:51:34;;;;;;;17.13;10.95;;;;;;;19.94;74.18;101618.91;5092252;28;20028;-46
2022/08/02 07:53:59;;;;;;;18.73;11.48;;;;;;;20.03;73.67;101624.16;5092346;28;20059;-45
2022/08/02 07:56:25;;;;;;;18.10;10.77;;;;;;;20.13;72.46;101624.16;5092226;28;20044;-47
2022/08/02 07:58:50;;;;;;;15.48;9.88;;;;;;;20.28;72.93;101625.97;5092044;28;20028;-44
2022/08/02 08:01:15;;;;;;;15.10;9.18;;;;;;;20.43;71.86;101627.75;5092661;28;20024;-44
2022/08/02 08:03:41;;;;;;;12.18;8.25;;;;;;;20.58;70.69;101627.75;5091978;28;20028;-46
2022/08/02 08:06:06;;;;;;;15.27;7.18;;;;;;;20.82;70.46;101620.78;5092235;28;20487;-44
2022/08/02 08:08:33;;;;;;;15.30;7.78;;;;;;;20.88;68.36;101618.16;5092189;28;20028;-47
2022/08/02 08:10:59;;;;;;;;;;;;;;;20.97;68.58;101625.16;5092256;28;20387;-44
2022/08/02 08:13:24;;;;;;;12.43;7.57;;;;;;;21.02;68.33;101619.03;5093465;28;20363;-45
2022/08/02 08:15:49;;;;;;;13.38;7.10;;;;;;;21.10;67.96;101610.28;5095709;28;20749;-47
2022/08/02 08:18:14;;;;;;;10.02;6.32;;;;;;;21.28;68.03;101610.22;5095429;28;20020;-44
2022/08/02 08:20:40;;;;;;;10.52;5.93;;;;;;;21.41;67.21;101616.31;5095512;28;20024;-45
2022/08/02 08:23:05;;;;;;;9.30;5.90;;;;;;;21.38;65.43;101614.56;5095793;28;20024;-44
2022/08/02 08:25:30;;;;;;;7.85;4.50;;;;;;;21.44;66.73;101610.19;5094811;28;20403;-45
2022/08/02 08:27:56;;;;;;;8.48;4.70;;;;;;;21.47;64.49;101604.91;5095425;28;20027;-44
2022/08/02 08:30:21;;;;;;;8.45;4.72;;;;;;;21.58;63.76;101607.53;5095832;28;20024;-44
2022/08/02 08:32:47;;;;;;;9.77;4.10;;;;;;;21.77;63.99;101608.31;5094744;28;20048;-46
2022/08/02 08:35:12;;;;;;;7.80;4.15;;;;;;;21.93;63.05;101602.09;5095605;28;20382;-44
2022/08/02 08:37:38;;;;;;;5.68;3.60;;;;;;;21.91;60.13;101597.75;5095270;28;20036;-46
2022/08/02 08:40:08;;;;;;;5.90;3.03;;;;;;;22.12;61.86;101602.03;5094488;28;20027;-44
2022/08/02 08:42:36;;;;;;;9.00;3.75;;;;;;;22.29;60.52;101604.53;5094715;28;20052;-47
2022/08/02 08:45:03;;;;;;;5.55;3.45;;;;;;;22.22;57.64;101601.06;5094819;28;20073;-44
2022/08/02 08:47:36;;;;;;;6.65;3.60;;;;;;;22.41;58.87;101607.06;5094756;28;20036;-45
2022/08/02 08:50:11;;;;;;;4.63;2.40;;;;;;;22.48;57.30;101618.44;5095034;28;20502;-46
2022/08/02 08:52:51;;;;;;;7.80;3.10;;;;;;;22.56;56.37;101615.75;5094374;28;20111;-45
2022/08/02 08:55:21;;;;;;;7.57;2.78;;;;;;;22.66;56.23;101620.91;5095187;28;20024;-47
2022/08/02 08:57:46;;;;;;;6.90;3.40;;;;;;;22.74;55.64;101617.34;5094743;28;20371;-44
2022/08/02 09:00:12;;;;;;;5.15;2.33;;;;;;;22.90;55.88;101615.44;5094579;28;20028;-46
2022/08/02 09:02:40;;;;;;;6.05;2.70;;;;;;;22.99;55.45;101613.56;5094752;28;20050;-45
2022/08/02 09:05:08;;;;;;;7.38;3.10;;;;;;;23.02;54.32;101616.19;5094937;28;20020;-46
2022/08/02 09:07:34;;;;;;;5.22;2.50;;;;;;;22.96;53.04;101613.59;5093701;28;20028;-44
2022/08/02 09:09:59;;;;;;;6.15;2.40;;;;;;;22.98;53.83;101614.47;5094879;28;20028;-45
2022/08/02 09:12:24;;;;;;;7.43;3.00;;;;;;;22.85;51.78;101612.84;5094731;28;20031;-44
2022/08/02 09:14:50;;;;;;;3.42;2.30;;;;;;;22.71;51.43;101617.34;5094092;28;20117;-44
2022/08/02 09:17:15;;;;;;;4.05;2.20;;;;;;;22.69;51.73;101612.97;5094899;28;20468;-45
2022/08/02 09:19:41;;;;;;;5.70;2.40;;;;;;;22.93;52.92;101611.03;5094439;28;20099;-48
2022/08/02 09:22:09;;;;;;;5.57;2.20;;;;;;;23.09;51.69;101613.50;5093782;28;20103;-45
2022/08/02 09:24:48;;;;;;;6.38;2.03;;;;;;;23.23;52.10;101614.25;5094375;28;20035;-48
2022/08/02 09:27:19;;;;;;;3.78;2.10;;;;;;;23.44;52.19;101609.63;5094084;28;20050;-45
2022/08/02 09:29:50;;;;;;;5.93;1.88;;;;;;;23.63;50.26;101611.13;5093992;28;20028;-46
2022/08/02 09:32:17;;;;;;;5.32;2.10;;;;;;;23.66;48.82;101605.81;5094328;28;20017;-44
2022/08/02 09:34:47;;;;;;;4.47;2.03;;;;;;;23.81;49.39;101610.03;5093493;28;20047;-46
2022/08/02 09:37:29;;;;;;;4.68;2.40;;;;;;;23.81;48.75;101609.16;5094101;28;20426;-46
2022/08/02 09:39:59;;;;;;;4.05;2.10;;;;;;;23.90;48.78;101606.44;5094208;28;20024;-46
2022/08/02 09:42:25;;;;;;;5.38;2.15;;;;;;;24.19;48.80;101596.38;5093347;28;20051;-46
2022/08/02 09:45:00;;;;;;;5.00;2.20;;;;;;;24.27;48.52;101607.66;5093892;28;20024;-45
2022/08/02 09:47:26;;;;;;;6.20;2.42;;;;;;;24.39;47.05;101603.94;5094083;28;20119;-44
2022/08/02 09:49:57;;;;;;;5.85;2.20;;;;;;;24.44;45.10;101607.38;5093599;28;20016;-45
2022/08/02 09:52:29;;;;;;;6.05;2.22;;;;;;;24.66;45.51;101605.28;5093978;28;20024;-45
2022/08/02 09:55:03;;;;;;;3.15;1.70;;;;;;;24.76;44.67;101606.00;5093843;28;20383;-49
2022/08/02 09:57:29;;;;;;;3.47;1.83;;;;;;;24.86;44.11;101610.22;5092889;28;20044;-45
2022/08/02 09:59:56;;;;;;;5.40;2.00;;;;;;;24.76;42.57;101603.38;5093854;28;20061;-47
2022/08/02 10:02:21;;;;;;;6.47;2.00;;;;;;;24.78;43.76;101606.84;5093432;28;20032;-46
2022/08/02 10:04:46;;;;;;;4.85;1.85;;;;;;;25.04;44.62;101613.41;5093242;28;20069;-47
2022/08/02 10:07:12;;;;;;;4.80;1.77;;;;;;;25.33;44.22;101604.91;5093813;28;20498;-49
2022/08/02 10:09:38;;;;;;;3.35;2.00;;;;;;;25.56;42.97;101614.19;5093043;28;20028;-48
2022/08/02 10:12:04;;;;;;;5.20;1.75;;;;;;;25.85;42.55;101612.66;5093373;28;20028;-46
2022/08/02 10:14:32;;;;;;;3.85;1.77;;;;;;;26.12;40.83;101606.81;5093456;28;20411;-47
2022/08/02 10:16:59;;;;;;;2.80;1.50;;;;;;;26.43;40.40;101605.16;5093013;28;20048;-45
2022/08/02 10:19:24;;;;;;;2.92;1.40;;;;;;;27.08;39.62;101604.38;5093208;28;20027;-45
2022/08/02 10:22:08;;;;;;;2.88;1.38;;;;;;;27.42;36.71;101597.31;5093447;28;20024;-47
2022/08/02 10:24:36;;;;;;;2.70;1.17;;;;;;;27.65;35.34;101601.06;5092818;28;20035;-46
2022/08/02 10:27:02;;;;;;;2.28;1.20;;;;;;;27.89;34.87;101602.94;5093265;28;20032;-45
2022/08/02 10:29:36;;;;;;;3.03;1.20;;;;;;;28.49;35.32;101591.34;5093480;28;20039;-45
2022/08/02 10:32:06;;;;;;;2.63;1.35;;;;;;;29.01;32.88;101584.25;5092620;28;20053;-49
2022/08/02 10:34:39;;;;;;;3.50;1.15;;;;;;;29.36;32.26;101590.06;5093219;28;20107;-45
2022/08/02 10:37:07;;;;;;;4.25;1.00;;;;;;;28.99;31.20;101590.53;5092524;28;20024;-44
2022/08/02 10:39:43;;;;;;;2.95;0.90;;;;;;;28.79;32.83;101588.59;5092622;28;20024;-43
2022/08/02 10:42:10;;;;;;;4.85;1.08;;;;;;;28.63;32.23;101591.75;5093277;28;20028;-44
2022/08/02 10:44:36;;;;;;;2.38;1.15;;;;;;;29.08;32.49;101585.75;5092723;28;20031;-43
2022/08/02 10:47:14;;;;;;;4.07;1.02;;;;;;;29.10;32.73;101588.34;5092732;28;20391;-48
2022/08/02 10:49:55;;;;;;;4.28;1.20;;;;;;;29.24;32.11;101594.03;5092857;28;20040;-44
2022/08/02 10:52:27;;;;;;;2.65;0.90;;;;;;;29.23;30.97;101594.94;5092566;28;20023;-44
2022/08/02 10:54:53;;;;;;;5.22;1.05;;;;;;;28.94;31.09;101595.16;5092953;28;20031;-45
2022/08/02 10:57:20;;;;;;;3.67;1.00;;;;;;;28.94;31.59;101595.16;5093159;28;20036;-45
2022/08/02 10:59:47;;;;;;;6.47;0.90;;;;;;;29.21;30.67;101591.47;5092130;28;20047;-45
2022/08/02 11:02:12;;;;;;;2.90;1.05;;;;;;;29.41;30.84;101592.53;5092935;28;20720;-44
2022/08/02 11:04:38;;;;;;;2.88;0.93;;;;;;;29.79;30.18;101587.53;5092647;28;20493;-46
2022/08/02 11:07:21;;;;;;;4.17;1.10;;;;;;;29.35;30.35;101587.47;5092232;28;20077;-45
2022/08/02 11:09:48;;;;;;;3.13;1.05;;;;;;;29.32;30.75;101585.81;5092580;28;20493;-44
2022/08/02 11:12:19;;;;;;;1.30;0.90;;;;;;;29.56;30.19;101591.94;5092878;28;20065;-47
2022/08/02 11:14:58;;;;;;;3.10;0.90;;;;;;;30.10;30.47;101591.66;5091837;28;20027;-46
2022/08/02 11:17:24;;;;;;;2.33;0.90;;;;;;;29.81;27.73;101588.34;5092853;28;20035;-44
2022/08/02 11:20:07;;;;;;;1.65;0.80;;;;;;;29.81;28.92;101579.50;5092298;28;20021;-44
2022/08/02 11:22:33;;;;;;;2.00;1.02;;;;;;;29.95;29.24;101581.66;5092434;28;20180;-45